Time;durP1;ratioP1;P1;durP2;ratioP2;P2;SDS_P1;SDS_P2;PMS_P1;PMS_P2;Temp;Humidity;BMP_temperature;BMP_pressure;BME280_temperature;BME280_humidity;BME280_pressure;Samples;Min_cycle;Max_cycle;Signal;HPM_P1;HPM_P2
2022/02/14 00:00:19;;;;;;;1.38;1.05;;;18.60;99.90;;;;;;5017705;28;20050;-60
2022/02/14 00:02:46;;;;;;;;;;;18.60;99.90;;;;;;5016285;28;20045;-58
2022/02/14 00:05:14;;;;;;;0.40;0.40;;;18.60;99.90;;;;;;5010987;28;19932;-61
2022/02/14 00:07:41;;;;;;;0.40;0.40;;;18.50;99.90;;;;;;5008729;28;20053;-60
2022/02/14 00:10:10;;;;;;;0.30;0.30;;;18.50;99.90;;;;;;5017810;28;20501;-61
2022/02/14 00:12:42;;;;;;;2.83;1.55;;;18.50;99.90;;;;;;5014343;28;20053;-62
2022/02/14 00:15:11;;;;;;;0.50;0.50;;;18.50;99.90;;;;;;5016551;28;20045;-62
2022/02/14 00:17:39;;;;;;;0.68;0.68;;;18.50;99.90;;;;;;5015523;28;20052;-60
2022/02/14 00:20:07;;;;;;;0.75;0.75;;;18.50;99.90;;;;;;5011101;28;20057;-62
2022/02/14 00:22:35;;;;;;;0.43;0.43;;;18.50;99.90;;;;;;5024356;28;20049;-61
2022/02/14 00:25:04;;;;;;;0.40;0.40;;;18.40;99.90;;;;;;5022366;28;20080;-63
2022/02/14 00:27:31;;;;;;;0.30;0.30;;;18.40;99.90;;;;;;5012874;28;20052;-60
2022/02/14 00:29:59;;;;;;;0.60;0.60;;;18.50;99.90;;;;;;5023120;28;20053;-60
2022/02/14 00:32:26;;;;;;;;;;;18.40;99.90;;;;;;5009609;28;20410;-61
2022/02/14 00:34:55;;;;;;;0.85;0.80;;;18.40;99.90;;;;;;5012370;28;20419;-61
2022/02/14 00:37:22;;;;;;;2.13;0.93;;;18.40;99.90;;;;;;5001765;28;20045;-62
2022/02/14 00:39:50;;;;;;;0.40;0.40;;;18.40;99.90;;;;;;5013048;28;20077;-61
2022/02/14 00:42:19;;;;;;;0.75;0.75;;;18.40;99.90;;;;;;5016090;28;20054;-61
2022/02/14 00:44:47;;;;;;;0.68;0.40;;;18.40;99.90;;;;;;5018958;28;20084;-60
2022/02/14 00:47:14;;;;;;;0.73;0.73;;;18.40;99.90;;;;;;5023839;28;20080;-60
2022/02/14 00:49:42;;;;;;;0.40;0.40;;;18.40;99.90;;;;;;5016343;28;20049;-62
2022/02/14 00:52:09;;;;;;;0.50;0.50;;;18.40;99.90;;;;;;5015488;28;20382;-61
2022/02/14 00:54:37;;;;;;;0.50;0.50;;;18.40;99.90;;;;;;5019157;28;20444;-60
2022/02/14 00:57:04;;;;;;;0.63;0.63;;;18.30;99.90;;;;;;5022555;28;20062;-59
2022/02/14 00:59:31;;;;;;;2.17;1.10;;;18.30;99.90;;;;;;5019185;28;20058;-61
2022/02/14 01:01:59;;;;;;;0.70;0.65;;;18.30;99.90;;;;;;5014043;28;20034;-60
2022/02/14 01:04:26;;;;;;;0.73;0.70;;;18.30;99.90;;;;;;5015591;28;20056;-62
2022/02/14 01:06:53;;;;;;;0.57;0.57;;;18.30;99.90;;;;;;5005925;28;20057;-60
2022/02/14 01:09:21;;;;;;;0.40;0.40;;;18.30;99.90;;;;;;5019170;28;20064;-60
2022/02/14 01:11:50;;;;;;;0.60;0.60;;;18.30;99.90;;;;;;5018025;28;20049;-61
2022/02/14 01:14:17;;;;;;;2.25;1.35;;;18.30;99.90;;;;;;5019107;28;20412;-57
2022/02/14 01:16:44;;;;;;;0.30;0.30;;;18.30;99.90;;;;;;5020584;28;20077;-58
2022/02/14 01:19:12;;;;;;;0.82;0.82;;;18.30;99.90;;;;;;5024025;28;20512;-58
2022/02/14 01:21:39;;;;;;;0.50;0.50;;;18.40;99.90;;;;;;5020678;28;20045;-61
2022/02/14 01:24:07;;;;;;;2.97;0.77;;;18.40;99.90;;;;;;5016964;28;20557;-62
2022/02/14 01:26:34;;;;;;;1.75;0.95;;;18.40;99.90;;;;;;5013869;28;20062;-61
2022/02/14 01:29:02;;;;;;;0.30;0.30;;;18.40;99.90;;;;;;5031274;28;20045;-61
2022/02/14 01:31:29;;;;;;;1.45;0.77;;;18.30;99.90;;;;;;5025735;28;20479;-63
2022/02/14 01:33:57;;;;;;;0.40;0.40;;;18.30;99.90;;;;;;5014639;28;20513;-62
2022/02/14 01:36:24;;;;;;;2.42;1.63;;;18.30;99.90;;;;;;5022162;28;20480;-61
2022/02/14 01:38:51;;;;;;;0.52;0.45;;;18.30;99.90;;;;;;5010122;28;20046;-60
2022/02/14 01:41:19;;;;;;;0.40;0.40;;;18.20;99.90;;;;;;5023836;28;20045;-61
2022/02/14 01:43:46;;;;;;;0.73;0.73;;;18.20;99.90;;;;;;4989898;28;20058;-62
2022/02/14 01:46:13;;;;;;;0.52;0.52;;;18.20;99.90;;;;;;5021072;28;20483;-60
2022/02/14 01:48:41;;;;;;;1.10;0.70;;;18.20;99.90;;;;;;5012442;28;20045;-58
2022/02/14 01:51:09;;;;;;;0.88;0.60;;;18.20;99.90;;;;;;5025083;28;20049;-60
2022/02/14 01:53:37;;;;;;;0.45;0.45;;;18.20;99.90;;;;;;5019927;28;20042;-60
2022/02/14 01:56:04;;;;;;;0.30;0.30;;;18.30;99.90;;;;;;5017009;28;20428;-61
2022/02/14 01:58:33;;;;;;;0.55;0.55;;;18.30;99.90;;;;;;5009495;28;20038;-63
2022/02/14 02:01:00;;;;;;;0.50;0.50;;;18.30;99.90;;;;;;5010071;28;20049;-61
2022/02/14 02:03:28;;;;;;;0.50;0.50;;;18.30;99.90;;;;;;5025746;28;20049;-61
2022/02/14 02:05:56;;;;;;;1.42;0.90;;;18.30;99.90;;;;;;5014421;28;20518;-62
2022/02/14 02:08:25;;;;;;;0.50;0.50;;;18.30;99.90;;;;;;5018852;28;20053;-61
2022/02/14 02:12:22;;;;;;;0.55;0.55;;;18.30;99.90;;;;;;5009311;28;20505;-61
2022/02/14 02:13:50;;;;;;;0.77;0.75;;;18.30;99.90;;;;;;5018756;28;20045;-60
2022/02/14 02:16:18;;;;;;;0.47;0.40;;;18.30;99.90;;;;;;5016662;28;20121;-61
2022/02/14 02:18:45;;;;;;;0.85;0.73;;;18.30;99.90;;;;;;5016550;28;20041;-61
2022/02/14 02:21:12;;;;;;;1.33;0.68;;;18.30;99.90;;;;;;5017369;28;20052;-62
2022/02/14 02:23:41;;;;;;;3.83;1.95;;;18.30;99.90;;;;;;5026055;28;20076;-61
2022/02/14 02:26:08;;;;;;;0.70;0.70;;;18.30;99.90;;;;;;5001020;28;20527;-62
2022/02/14 02:28:36;;;;;;;0.75;0.75;;;18.30;99.90;;;;;;4994063;28;20513;-60
2022/02/14 02:31:04;;;;;;;0.80;0.80;;;18.30;99.90;;;;;;5010262;28;20057;-61
2022/02/14 02:33:33;;;;;;;2.83;1.95;;;18.20;99.90;;;;;;4994097;28;20046;-61
2022/02/14 02:36:01;;;;;;;1.67;0.82;;;18.20;99.90;;;;;;5022776;28;20045;-63
2022/02/14 02:38:28;;;;;;;0.82;0.82;;;18.20;99.90;;;;;;5015599;28;20073;-61
2022/02/14 02:40:56;;;;;;;0.40;0.40;;;18.20;99.90;;;;;;5025479;28;20045;-61
2022/02/14 02:43:24;;;;;;;0.30;0.30;;;18.20;99.90;;;;;;5017450;28;20418;-62
2022/02/14 02:45:56;;;;;;;0.30;0.30;;;18.20;99.90;;;;;;5009108;28;20058;-61
2022/02/14 02:48:23;;;;;;;1.20;1.10;;;18.20;99.90;;;;;;5016504;28;20046;-60
2022/02/14 02:51:14;;;;;;;0.30;0.30;;;18.10;99.90;;;;;;5008629;28;20073;-59
2022/02/14 02:53:39;;;;;;;0.73;0.73;;;18.10;99.90;;;;;;5008952;28;20064;-60
2022/02/14 02:56:06;;;;;;;2.03;0.80;;;18.10;99.90;;;;;;5016329;28;20516;-61
2022/02/14 02:58:34;;;;;;;0.60;0.60;;;18.10;99.90;;;;;;5020692;28;20334;-61
2022/02/14 03:01:01;;;;;;;0.40;0.40;;;18.10;99.90;;;;;;5024189;28;20060;-61
2022/02/14 03:03:29;;;;;;;0.30;0.30;;;18.10;99.90;;;;;;5016863;28;20042;-60
2022/02/14 03:05:56;;;;;;;0.35;0.35;;;18.10;99.90;;;;;;5013926;28;20045;-61
2022/02/14 03:08:23;;;;;;;1.05;0.95;;;18.10;99.90;;;;;;5005610;28;20057;-60
2022/02/14 03:10:51;;;;;;;0.50;0.50;;;18.10;99.90;;;;;;5012584;28;20049;-60
2022/02/14 03:13:18;;;;;;;0.40;0.40;;;18.10;99.90;;;;;;5026592;28;20057;-58
2022/02/14 03:15:47;;;;;;;1.95;1.33;;;18.00;99.90;;;;;;5010218;28;20037;-61
2022/02/14 03:18:15;;;;;;;0.45;0.45;;;18.00;99.90;;;;;;5009402;28;20072;-61
2022/02/14 03:20:42;;;;;;;0.95;0.95;;;18.10;99.90;;;;;;5013073;28;20153;-62
2022/02/14 03:23:10;;;;;;;1.20;1.10;;;18.10;99.90;;;;;;5015579;28;20049;-63
2022/02/14 03:25:37;;;;;;;5.47;1.08;;;18.10;99.90;;;;;;5012516;28;20053;-62
2022/02/14 03:28:04;;;;;;;1.48;1.38;;;18.00;99.90;;;;;;5005701;28;20057;-59
2022/02/14 03:30:32;;;;;;;0.40;0.40;;;18.00;99.90;;;;;;5010597;28;20049;-61
2022/02/14 03:32:59;;;;;;;0.60;0.60;;;18.00;99.90;;;;;;5020999;28;20050;-61
2022/02/14 03:35:27;;;;;;;0.52;0.52;;;18.00;99.90;;;;;;5021462;28;20046;-60
2022/02/14 03:37:56;;;;;;;0.98;0.75;;;18.00;99.90;;;;;;5012499;28;20037;-61
2022/02/14 03:40:23;;;;;;;0.45;0.45;;;18.00;99.90;;;;;;5001220;28;20053;-62
2022/02/14 03:42:51;;;;;;;0.63;0.63;;;18.00;99.90;;;;;;5024410;28;20404;-61
2022/02/14 03:45:18;;;;;;;1.10;1.00;;;18.00;99.90;;;;;;5025313;28;20053;-61
2022/02/14 03:47:45;;;;;;;0.90;0.85;;;18.00;99.90;;;;;;5013605;28;20057;-61
2022/02/14 03:50:12;;;;;;;1.15;0.70;;;17.90;99.90;;;;;;5024760;28;20057;-60
2022/02/14 03:52:40;;;;;;;0.30;0.30;;;17.90;99.90;;;;;;5022766;28;20057;-62
2022/02/14 03:55:08;;;;;;;5.13;2.38;;;18.00;99.90;;;;;;5019360;28;20046;-61
2022/02/14 03:57:35;;;;;;;0.43;0.43;;;17.90;99.90;;;;;;5021412;28;20068;-60
2022/02/14 04:00:11;;;;;;;1.25;1.15;;;17.90;99.90;;;;;;5006165;28;20042;-59
2022/02/14 04:02:39;;;;;;;0.50;0.50;;;17.90;99.90;;;;;;5027335;28;20049;-62
2022/02/14 04:05:09;;;;;;;0.57;0.57;;;17.90;99.90;;;;;;5014322;28;20381;-60
2022/02/14 04:07:36;;;;;;;1.85;1.02;;;17.90;99.90;;;;;;5020637;28;20071;-59
2022/02/14 04:10:05;;;;;;;1.83;0.93;;;17.90;99.90;;;;;;5025135;28;20576;-61
2022/02/14 04:12:32;;;;;;;0.30;0.30;;;17.90;99.90;;;;;;5015810;28;20065;-59
2022/02/14 04:15:00;;;;;;;0.32;0.32;;;17.90;99.90;;;;;;5008961;28;20054;-60
2022/02/14 04:17:27;;;;;;;4.00;1.77;;;17.90;99.90;;;;;;5021271;28;20064;-61
2022/02/14 04:19:55;;;;;;;0.73;0.73;;;17.90;99.90;;;;;;5008246;28;20050;-61
2022/02/14 04:22:22;;;;;;;0.40;0.40;;;17.90;99.90;;;;;;5020145;28;20045;-59
2022/02/14 04:24:49;;;;;;;0.57;0.57;;;17.90;99.90;;;;;;5006907;28;20046;-62
2022/02/14 04:27:17;;;;;;;0.50;0.50;;;17.90;99.90;;;;;;5020670;28;20053;-61
2022/02/14 04:29:44;;;;;;;0.85;0.75;;;17.90;99.90;;;;;;5016195;28;20058;-62
2022/02/14 04:32:11;;;;;;;0.30;0.30;;;17.90;99.90;;;;;;5011077;28;20525;-62
2022/02/14 04:34:39;;;;;;;0.30;0.30;;;17.80;99.90;;;;;;5013732;28;20050;-61
2022/02/14 04:37:06;;;;;;;0.65;0.65;;;17.80;99.90;;;;;;5015427;28;20492;-61
2022/02/14 04:39:34;;;;;;;0.30;0.30;;;17.80;99.90;;;;;;5022728;28;20444;-62
2022/02/14 04:42:01;;;;;;;0.40;0.40;;;17.90;99.90;;;;;;5010116;28;20042;-63
2022/02/14 04:44:28;;;;;;;0.40;0.40;;;17.90;99.90;;;;;;5016012;28;20056;-61
2022/02/14 04:46:56;;;;;;;0.77;0.55;;;17.90;99.90;;;;;;5020087;28;20470;-61
2022/02/14 04:49:23;;;;;;;0.43;0.43;;;17.90;99.90;;;;;;5010896;28;20057;-61
2022/02/14 04:51:50;;;;;;;0.50;0.50;;;17.90;99.90;;;;;;5016575;28;20045;-60
2022/02/14 04:54:17;;;;;;;0.30;0.30;;;18.00;99.90;;;;;;5022061;28;20567;-59
2022/02/14 04:56:45;;;;;;;0.30;0.30;;;18.00;99.90;;;;;;5012669;28;20521;-60
2022/02/14 04:59:14;;;;;;;0.90;0.73;;;18.00;99.90;;;;;;5014299;28;20054;-62
2022/02/14 05:01:42;;;;;;;0.35;0.35;;;18.10;99.90;;;;;;5014211;28;20512;-60
2022/02/14 05:04:09;;;;;;;0.50;0.50;;;18.30;99.90;;;;;;5015067;28;20057;-61
2022/02/14 05:06:37;;;;;;;0.30;0.30;;;18.40;99.90;;;;;;5012876;28;20057;-62
2022/02/14 05:09:04;;;;;;;0.50;0.50;;;18.50;99.90;;;;;;5015120;28;20060;-60
2022/02/14 05:11:32;;;;;;;0.70;0.70;;;18.60;99.90;;;;;;5013652;28;21786;-59
2022/02/14 05:13:59;;;;;;;1.92;1.20;;;18.70;99.90;;;;;;5018384;28;20045;-62
2022/02/14 05:16:26;;;;;;;0.50;0.50;;;18.90;99.90;;;;;;5022209;28;20053;-62
2022/02/14 05:18:54;;;;;;;1.35;0.68;;;19.00;99.90;;;;;;5023831;28;20045;-62
2022/02/14 05:21:21;;;;;;;1.17;0.75;;;19.10;99.90;;;;;;5011700;28;20053;-60
2022/02/14 05:23:51;;;;;;;4.60;1.98;;;19.20;99.90;;;;;;5008699;28;20046;-61
2022/02/14 05:26:19;;;;;;;0.85;0.65;;;19.30;99.90;;;;;;5019138;28;20524;-56
2022/02/14 05:28:46;;;;;;;1.45;0.82;;;19.40;99.90;;;;;;5021623;28;20394;-63
2022/02/14 05:31:14;;;;;;;0.30;0.30;;;19.60;99.90;;;;;;5026587;28;20512;-60
2022/02/14 05:33:41;;;;;;;0.68;0.60;;;19.70;99.90;;;;;;5017333;28;20498;-62
2022/02/14 05:36:10;;;;;;;0.30;0.30;;;19.80;99.90;;;;;;5021869;28;20045;-62
2022/02/14 05:38:37;;;;;;;0.30;0.30;;;19.90;99.90;;;;;;5013610;28;20045;-59
2022/02/14 05:41:04;;;;;;;0.30;0.30;;;20.00;99.90;;;;;;4997191;28;20417;-61
2022/02/14 05:43:32;;;;;;;0.35;0.35;;;20.30;99.90;;;;;;5022237;28;20144;-61
2022/02/14 05:45:59;;;;;;;0.60;0.57;;;20.40;99.90;;;;;;5025743;28;20057;-62
2022/02/14 05:48:32;;;;;;;0.30;0.30;;;20.60;99.90;;;;;;5019313;28;20041;-60
2022/02/14 05:50:59;;;;;;;0.40;0.40;;;20.80;99.90;;;;;;5016456;28;20052;-61
2022/02/14 05:53:26;;;;;;;0.77;0.50;;;20.90;99.90;;;;;;5021623;28;20050;-60
2022/02/14 05:55:54;;;;;;;1.42;1.05;;;21.00;99.90;;;;;;5010523;28;20434;-61
2022/02/14 05:58:21;;;;;;;0.45;0.35;;;21.20;99.90;;;;;;5018267;28;20519;-62
2022/02/14 06:00:48;;;;;;;1.25;0.65;;;21.20;99.90;;;;;;5024824;28;20395;-60
2022/02/14 06:03:16;;;;;;;0.45;0.45;;;21.30;99.90;;;;;;5018849;28;20536;-60
2022/02/14 06:05:43;;;;;;;0.30;0.30;;;21.30;99.90;;;;;;5021704;28;20056;-62
2022/02/14 06:08:10;;;;;;;5.15;0.95;;;21.10;99.90;;;;;;5018799;28;20056;-62
2022/02/14 06:10:37;;;;;;;0.55;0.47;;;21.00;99.90;;;;;;5023540;28;20550;-67
2022/02/14 06:13:05;;;;;;;0.30;0.30;;;21.00;99.90;;;;;;4998877;28;20049;-60
2022/02/14 06:15:36;;;;;;;0.45;0.45;;;21.00;99.90;;;;;;5019223;28;20046;-61
2022/02/14 06:18:03;;;;;;;1.90;1.33;;;21.00;99.90;;;;;;5012060;28;20053;-61
2022/02/14 06:20:31;;;;;;;0.20;0.20;;;21.00;99.90;;;;;;5015890;28;20516;-61
2022/02/14 06:22:58;;;;;;;0.50;0.50;;;21.00;99.90;;;;;;5020413;28;20528;-60
2022/02/14 06:25:25;;;;;;;1.58;1.42;;;20.70;99.90;;;;;;5016706;28;20045;-62
2022/02/14 06:27:52;;;;;;;1.75;1.27;;;19.60;95.90;;;;;;5017375;28;20054;-60
2022/02/14 06:30:22;;;;;;;5.05;2.85;;;19.00;97.30;;;;;;5019500;28;20137;-60
2022/02/14 06:32:50;;;;;;;2.22;1.10;;;19.20;97.50;;;;;;5017867;28;20436;-60
2022/02/14 06:35:18;;;;;;;2.45;1.95;;;19.70;97.20;;;;;;5016952;28;20521;-61
2022/02/14 06:37:46;;;;;;;1.45;0.93;;;20.10;97.50;;;;;;5021601;28;20056;-63
2022/02/14 06:40:14;;;;;;;2.30;1.67;;;20.40;98.10;;;;;;5010837;28;20697;-61
2022/02/14 06:42:41;;;;;;;1.85;1.27;;;20.60;98.90;;;;;;5020073;28;20057;-66
2022/02/14 06:45:09;;;;;;;0.65;0.57;;;20.70;99.60;;;;;;5018784;28;20052;-59
2022/02/14 06:47:36;;;;;;;2.60;2.03;;;20.80;99.90;;;;;;5023684;28;20049;-61
2022/02/14 06:50:04;;;;;;;1.17;0.70;;;20.90;99.90;;;;;;5017961;28;20461;-59
2022/02/14 06:52:31;;;;;;;0.43;0.43;;;20.90;99.90;;;;;;5024753;28;20428;-59
2022/02/14 06:54:58;;;;;;;2.08;1.42;;;21.00;99.90;;;;;;5020782;28;20061;-61
2022/02/14 06:57:25;;;;;;;0.85;0.70;;;21.00;99.90;;;;;;5015363;28;20402;-60
2022/02/14 06:59:53;;;;;;;1.70;1.02;;;21.00;99.90;;;;;;5023823;28;20033;-63
2022/02/14 07:02:20;;;;;;;1.20;1.10;;;21.00;99.90;;;;;;5011057;28;20045;-64
2022/02/14 07:04:48;;;;;;;0.40;0.40;;;21.00;99.90;;;;;;5028137;28;20045;-63
2022/02/14 07:07:19;;;;;;;0.40;0.40;;;21.00;99.90;;;;;;5018542;28;20425;-64
2022/02/14 07:09:47;;;;;;;1.20;0.73;;;21.00;99.90;;;;;;5015166;28;20053;-63
2022/02/14 07:12:14;;;;;;;0.98;0.82;;;21.00;99.90;;;;;;5025524;28;20056;-60
2022/02/14 07:14:41;;;;;;;2.90;1.40;;;21.00;99.90;;;;;;5024303;28;20042;-64
2022/02/14 07:17:11;;;;;;;1.30;0.70;;;21.00;99.90;;;;;;5010416;28;20057;-64
2022/02/14 07:19:39;;;;;;;0.68;0.68;;;21.00;99.90;;;;;;5021790;28;20045;-64
2022/02/14 07:22:06;;;;;;;0.80;0.80;;;20.90;99.90;;;;;;5000748;28;20045;-64
2022/02/14 07:24:33;;;;;;;1.00;0.82;;;20.90;99.90;;;;;;5026115;28;20663;-64
2022/02/14 07:27:01;;;;;;;1.30;1.20;;;20.80;99.90;;;;;;5013201;28;20532;-63
2022/02/14 07:29:29;;;;;;;1.25;1.15;;;20.70;99.90;;;;;;5020254;28;20053;-63
2022/02/14 07:31:56;;;;;;;0.93;0.93;;;20.60;99.90;;;;;;5023028;28;20053;-66
2022/02/14 07:34:24;;;;;;;0.45;0.45;;;20.60;99.90;;;;;;5022720;28;20057;-64
2022/02/14 07:36:52;;;;;;;0.55;0.55;;;20.60;99.90;;;;;;5023865;28;20049;-61
2022/02/14 07:39:19;;;;;;;2.33;1.48;;;20.60;99.90;;;;;;5017630;28;20050;-64
2022/02/14 07:41:48;;;;;;;2.75;1.40;;;20.50;99.90;;;;;;5011097;28;20053;-64
2022/02/14 07:44:15;;;;;;;2.72;1.63;;;20.50;99.90;;;;;;5017759;28;20038;-62
2022/02/14 07:46:44;;;;;;;1.35;1.05;;;20.50;99.90;;;;;;5019874;28;20120;-63
2022/02/14 07:49:11;;;;;;;2.40;1.27;;;20.40;99.90;;;;;;5017360;28;20046;-64
2022/02/14 07:51:39;;;;;;;;;;;20.40;99.90;;;;;;5017775;28;20069;-63
2022/02/14 07:54:07;;;;;;;0.45;0.45;;;20.40;99.90;;;;;;5025826;28;20281;-65
2022/02/14 07:56:34;;;;;;;;;;;20.40;99.90;;;;;;5026539;28;20053;-68
2022/02/14 07:59:03;;;;;;;1.98;1.77;;;20.40;99.90;;;;;;5018178;28;19944;-65
2022/02/14 08:01:30;;;;;;;1.55;1.00;;;20.50;99.90;;;;;;5015558;28;20041;-67
2022/02/14 08:03:58;;;;;;;0.95;0.63;;;20.60;99.90;;;;;;5013270;28;20053;-67
2022/02/14 08:06:32;;;;;;;0.43;0.43;;;20.90;99.90;;;;;;5017235;28;20050;-67
2022/02/14 08:09:00;;;;;;;1.30;1.00;;;21.00;99.90;;;;;;5018766;28;20072;-66
2022/02/14 08:11:27;;;;;;;0.38;0.38;;;21.10;99.90;;;;;;5019024;28;20054;-67
2022/02/14 08:13:55;;;;;;;1.90;1.08;;;21.10;99.90;;;;;;5021744;28;20065;-67
2022/02/14 08:16:22;;;;;;;1.08;0.93;;;21.20;99.90;;;;;;5012005;28;20096;-62
2022/02/14 08:18:49;;;;;;;3.45;2.40;;;21.20;99.90;;;;;;5021887;28;20053;-61
2022/02/14 08:21:17;;;;;;;2.90;1.08;;;21.30;99.90;;;;;;4994394;28;20551;-60
2022/02/14 08:23:45;;;;;;;2.60;1.55;;;21.30;99.90;;;;;;5020299;28;20053;-62
2022/02/14 08:26:12;;;;;;;1.98;1.75;;;21.20;99.90;;;;;;5015960;28;20054;-62
2022/02/14 08:28:40;;;;;;;0.98;0.90;;;21.20;99.90;;;;;;5011047;28;20312;-63
2022/02/14 08:31:07;;;;;;;0.77;0.77;;;21.20;99.90;;;;;;5016530;28;20459;-63
2022/02/14 08:33:34;;;;;;;1.98;0.90;;;21.20;99.90;;;;;;5016071;28;20054;-60
2022/02/14 08:36:03;;;;;;;3.33;1.65;;;21.10;99.90;;;;;;5008211;28;20053;-61
2022/02/14 08:38:31;;;;;;;0.40;0.40;;;21.10;99.90;;;;;;5014905;28;20058;-64
2022/02/14 08:40:58;;;;;;;0.55;0.55;;;21.00;99.90;;;;;;5021277;28;20488;-61
2022/02/14 08:43:26;;;;;;;0.60;0.57;;;21.00;99.90;;;;;;4998040;28;20509;-61
2022/02/14 08:46:05;;;;;;;0.43;0.43;;;21.00;99.90;;;;;;5013947;28;20053;-59
2022/02/14 08:48:33;;;;;;;6.32;1.67;;;21.00;99.90;;;;;;5016256;28;20046;-62
2022/02/14 08:51:02;;;;;;;0.73;0.73;;;20.90;99.90;;;;;;5016631;28;20064;-61
2022/02/14 08:53:33;;;;;;;2.28;1.45;;;20.90;99.90;;;;;;5012041;28;20552;-60
2022/02/14 08:56:08;;;;;;;1.25;1.10;;;20.90;99.90;;;;;;5016822;28;20461;-62
2022/02/14 08:58:42;;;;;;;1.98;1.38;;;20.80;99.90;;;;;;5009858;28;20057;-61
2022/02/14 09:01:11;;;;;;;0.95;0.95;;;20.80;99.90;;;;;;5024853;28;20850;-60
2022/02/14 09:03:42;;;;;;;0.70;0.70;;;20.80;99.90;;;;;;5029888;28;20505;-60
2022/02/14 09:06:10;;;;;;;0.68;0.68;;;20.70;99.90;;;;;;5018979;28;20045;-60
2022/02/14 09:08:38;;;;;;;0.80;0.80;;;20.70;99.90;;;;;;5023196;28;20068;-60
2022/02/14 09:11:05;;;;;;;;;;;20.60;99.90;;;;;;5021137;28;20042;-61
2022/02/14 09:13:36;;;;;;;;;;;20.60;99.90;;;;;;5029340;28;19975;-61
2022/02/14 09:16:05;;;;;;;2.53;1.65;;;20.60;99.90;;;;;;5022303;28;19924;-61
2022/02/14 09:18:35;;;;;;;0.30;0.30;;;20.70;99.90;;;;;;5022071;28;20520;-59
2022/02/14 09:21:03;;;;;;;0.40;0.40;;;20.70;99.90;;;;;;5012343;28;20046;-61
2022/02/14 09:23:31;;;;;;;0.88;0.55;;;20.80;99.90;;;;;;5025988;28;20069;-61
2022/02/14 09:25:59;;;;;;;0.35;0.35;;;20.90;99.90;;;;;;5017004;28;20042;-60
2022/02/14 09:28:29;;;;;;;2.63;1.52;;;20.90;99.90;;;;;;5025847;28;20064;-61
2022/02/14 09:30:58;;;;;;;;;;;21.00;99.90;;;;;;5019995;28;20060;-58
2022/02/14 09:33:25;;;;;;;2.72;1.40;;;21.10;99.90;;;;;;5015406;28;19932;-59
2022/02/14 09:35:53;;;;;;;0.80;0.80;;;21.20;99.90;;;;;;5020949;28;20520;-64
2022/02/14 09:38:24;;;;;;;;;;;21.20;99.90;;;;;;5017991;28;20194;-61
2022/02/14 09:40:52;;;;;;;5.70;0.68;;;21.30;99.90;;;;;;5018353;28;20423;-59
2022/02/14 09:43:19;;;;;;;0.60;0.60;;;21.30;99.90;;;;;;5026641;28;20061;-60
2022/02/14 09:45:47;;;;;;;1.50;1.00;;;21.40;99.90;;;;;;5016034;28;20053;-62
2022/02/14 09:48:16;;;;;;;0.30;0.30;;;21.30;99.90;;;;;;5028004;28;20128;-58
2022/02/14 09:50:44;;;;;;;0.80;0.80;;;21.40;99.90;;;;;;5024246;28;20057;-63
2022/02/14 09:53:12;;;;;;;;;;;21.40;99.90;;;;;;5024438;28;20408;-58
2022/02/14 09:55:44;;;;;;;1.63;0.88;;;21.40;99.90;;;;;;5024049;28;20405;-60
2022/02/14 09:58:13;;;;;;;0.70;0.70;;;21.40;99.90;;;;;;5025156;28;20103;-60
2022/02/14 10:00:40;;;;;;;3.70;1.05;;;21.40;99.90;;;;;;5024716;28;20038;-62
2022/02/14 10:03:20;;;;;;;0.22;0.22;;;21.30;99.90;;;;;;5008740;28;20050;-60
2022/02/14 10:05:55;;;;;;;2.40;1.65;;;21.30;99.90;;;;;;5018069;28;20433;-63
2022/02/14 10:08:30;;;;;;;3.70;1.10;;;21.30;99.90;;;;;;5017920;28;20054;-64
2022/02/14 10:11:13;;;;;;;2.80;1.33;;;21.30;99.90;;;;;;5022914;28;20064;-62
2022/02/14 10:13:43;;;;;;;0.70;0.70;;;21.20;99.90;;;;;;5028077;28;20308;-60
2022/02/14 10:16:13;;;;;;;2.47;1.33;;;21.00;99.90;;;;;;5015630;28;20057;-60
2022/02/14 10:18:42;;;;;;;3.35;1.52;;;21.00;99.90;;;;;;5034394;28;20045;-62
2022/02/14 10:21:22;;;;;;;0.47;0.47;;;21.00;99.90;;;;;;5026913;28;20075;-63
2022/02/14 10:24:10;;;;;;;1.80;1.33;;;21.00;99.90;;;;;;5040709;28;20063;-61
2022/02/14 10:26:40;;;;;;;0.98;0.80;;;21.00;99.90;;;;;;5031668;28;20060;-62
2022/02/14 10:29:12;;;;;;;0.30;0.30;;;20.90;99.90;;;;;;5029415;28;20045;-60
2022/02/14 10:31:47;;;;;;;1.17;0.68;;;20.90;99.90;;;;;;5033668;28;20049;-62
2022/02/14 10:34:19;;;;;;;2.05;1.50;;;20.90;99.90;;;;;;5029466;28;20045;-61
2022/02/14 10:36:49;;;;;;;0.70;0.68;;;20.80;99.90;;;;;;5022759;28;20056;-60
2022/02/14 10:39:22;;;;;;;0.28;0.28;;;20.80;99.90;;;;;;5025753;28;20053;-60
2022/02/14 10:42:01;;;;;;;3.22;1.50;;;20.70;99.90;;;;;;5021762;28;20049;-59
2022/02/14 10:47:24;;;;;;;1.45;0.88;;;20.70;99.90;;;;;;5018350;28;20493;-61
2022/02/14 10:49:59;;;;;;;1.27;1.10;;;20.70;99.90;;;;;;5021392;28;20237;-60
2022/02/14 10:52:39;;;;;;;1.15;0.68;;;20.60;99.90;;;;;;5012914;28;20053;-58
2022/02/14 10:55:18;;;;;;;0.70;0.70;;;20.60;99.90;;;;;;5022717;28;20523;-60
2022/02/14 10:57:48;;;;;;;0.80;0.43;;;20.70;99.90;;;;;;5024454;28;20445;-60
2022/02/14 11:00:21;;;;;;;0.80;0.80;;;20.80;99.90;;;;;;5014261;28;20049;-62
2022/02/14 11:02:52;;;;;;;4.00;1.70;;;20.90;99.90;;;;;;5022135;28;20048;-61
2022/02/14 11:05:20;;;;;;;2.22;1.52;;;21.10;99.90;;;;;;5026089;28;20054;-59
2022/02/14 11:07:48;;;;;;;1.30;0.50;;;21.20;99.90;;;;;;5024080;28;20346;-61
2022/02/14 11:10:18;;;;;;;0.70;0.70;;;21.30;99.90;;;;;;5020444;28;20376;-61
2022/02/14 11:12:54;;;;;;;0.60;0.60;;;21.40;99.90;;;;;;5021749;28;20046;-59
2022/02/14 11:15:34;;;;;;;0.73;0.73;;;21.60;99.90;;;;;;5024310;28;20128;-61
2022/02/14 11:18:06;;;;;;;1.42;1.33;;;21.70;99.90;;;;;;5020308;28;20060;-63
2022/02/14 11:20:38;;;;;;;1.45;0.68;;;21.70;99.90;;;;;;5006234;28;20072;-65
2022/02/14 11:23:09;;;;;;;0.80;0.73;;;21.80;99.90;;;;;;5019579;28;20372;-59
2022/02/14 11:26:00;;;;;;;0.30;0.30;;;21.70;99.90;;;;;;5021732;28;20046;-64
2022/02/14 11:29:00;;;;;;;2.03;1.38;;;21.70;99.90;;;;;;5023747;28;20056;-60
2022/02/14 11:31:30;;;;;;;1.35;1.10;;;21.70;99.90;;;;;;5010008;28;20052;-59
2022/02/14 11:33:59;;;;;;;1.50;0.90;;;21.70;99.90;;;;;;5017787;28;20433;-62
2022/02/14 11:36:30;;;;;;;0.28;0.28;;;21.60;99.90;;;;;;5024907;28;20045;-60
2022/02/14 11:39:04;;;;;;;0.47;0.40;;;21.60;99.90;;;;;;5025194;28;20512;-61
2022/02/14 11:41:41;;;;;;;0.30;0.30;;;21.50;99.90;;;;;;5020313;28;20045;-61
2022/02/14 11:44:11;;;;;;;2.33;1.50;;;21.50;99.90;;;;;;5016309;28;20045;-60
2022/02/14 11:47:09;;;;;;;15.45;1.85;;;21.40;99.90;;;;;;5025270;28;20049;-63
2022/02/14 11:49:41;;;;;;;1.90;1.15;;;21.40;99.90;;;;;;5016819;28;20437;-62
2022/02/14 11:52:28;;;;;;;0.30;0.30;;;21.30;99.90;;;;;;5020290;28;20053;-61
2022/02/14 11:55:02;;;;;;;0.40;0.38;;;21.30;99.90;;;;;;5015929;28;20080;-62
2022/02/14 11:57:49;;;;;;;1.65;1.27;;;21.30;99.90;;;;;;5015962;28;20061;-62
2022/02/14 12:00:29;;;;;;;0.47;0.47;;;21.30;99.90;;;;;;5022564;28;20060;-59
2022/02/14 12:03:09;;;;;;;1.00;0.93;;;21.20;99.90;;;;;;5024146;28;20489;-60
2022/02/14 12:05:38;;;;;;;1.98;0.75;;;21.20;99.90;;;;;;5017457;28;20386;-61
2022/02/14 12:08:06;;;;;;;4.07;1.95;;;21.20;99.90;;;;;;5002844;28;20405;-61
2022/02/14 12:10:51;;;;;;;0.85;0.85;;;21.20;99.90;;;;;;5028040;28;20056;-61
2022/02/14 12:13:21;;;;;;;0.30;0.30;;;21.20;99.90;;;;;;5016997;28;20072;-61
2022/02/14 12:21:39;;;;;;;1.27;0.77;;;21.20;99.90;;;;;;5022231;28;20421;-62
2022/02/14 12:24:19;;;;;;;0.45;0.45;;;21.20;99.90;;;;;;5004880;28;20054;-60
2022/02/14 12:26:58;;;;;;;0.82;0.82;;;21.20;99.90;;;;;;5024930;28;20042;-61
2022/02/14 12:29:35;;;;;;;0.70;0.63;;;21.20;99.90;;;;;;5016630;28;20060;-62
2022/02/14 12:32:08;;;;;;;1.10;0.85;;;21.20;99.90;;;;;;5019473;28;20049;-61
2022/02/14 12:34:39;;;;;;;1.95;1.17;;;21.10;99.90;;;;;;5018474;28;20053;-63
2022/02/14 12:37:11;;;;;;;0.60;0.60;;;21.20;99.90;;;;;;5021416;28;20053;-61
2022/02/14 12:39:44;;;;;;;0.50;0.50;;;21.20;99.90;;;;;;5020784;28;20041;-61
2022/02/14 12:42:32;;;;;;;1.77;0.77;;;21.10;99.90;;;;;;5022871;28;20054;-60
2022/02/14 12:44:59;;;;;;;0.85;0.85;;;21.10;99.90;;;;;;5024070;28;20042;-64
2022/02/14 12:47:28;;;;;;;0.75;0.75;;;21.10;99.90;;;;;;5021162;28;20053;-61
2022/02/14 12:50:17;;;;;;;2.20;1.20;;;21.00;99.90;;;;;;5021157;28;20038;-63
2022/02/14 12:52:47;;;;;;;1.60;1.10;;;21.00;99.90;;;;;;5025496;28;20049;-59
2022/02/14 12:55:24;;;;;;;0.63;0.60;;;21.00;99.90;;;;;;5016085;28;20053;-64
2022/02/14 12:57:56;;;;;;;0.60;0.60;;;21.00;99.90;;;;;;5026996;28;20068;-62
2022/02/14 13:00:29;;;;;;;1.40;0.65;;;21.10;99.90;;;;;;5006836;28;20372;-62
2022/02/14 13:03:00;;;;;;;0.50;0.50;;;21.20;99.90;;;;;;5021732;28;20049;-65
2022/02/14 13:05:31;;;;;;;0.50;0.50;;;21.30;99.90;;;;;;5021388;28;20421;-60
2022/02/14 13:08:01;;;;;;;0.45;0.45;;;21.40;99.90;;;;;;5020811;28;20073;-60